Portada
METAR-TAF:

METAR-TAF

Aeroports :

Burlington, Iowa, Estats Units d'Amèrica

latitud: 40-46-22N, longitud: 091-07-31W, altitud: 212 m

Observació

L'informe es va fer fa 35 minuts, a les 19:53 UTC
Vent 6 kt del Nord/Nord-Est
Temperatura 2°C
Humitat 64%
Pressió 1021 hPa
Visibilitat: 14.5 km
Cel clar

METAR: KBRL 221953Z AUTO 02006KT 9SM CLR 02/M04 A3016 RMK AO2 SLP219 T00171044

Hora: 14:28 (20:28 UTC)

Pronòstic

L'informe es va fer fa 3 hores i 8 minuts, a les 17:20 UTC
Pronòstic vàlid del 22 a les 18 UTC al 23 a les 18 UTC
Vent 3 kt del Nord
Visibilitat: 10 km
Núvols disperses a una alçada de 2000 ft
A partir de les 23 a les 0400 UTC
Vent 3 kt amb direcció variable
Visibilitat: 10 km
Cel ennuvolat a una alçada de 15000 ft
A partir de les 23 a les 1000 UTC
Vent kt del Nord
Visibilitat: 10 km
Cel ennuvolat a una alçada de 5000 ft

TAF: KBRL 221720Z 2218/2318 36003KT P6SM SCT020 FM230400 VRB03KT P6SM BKN150 FM231000 00000KT P6SM BKN050

Observacions i pronòstics meteorològics de més de 4000 aeroports (METAR i TAF).

Les estacions disponibles són els punts grocs i vermells al mapa.

Posi el ratolí al punt desitjat per veure el nom de l'estació.

Feu clic per veure les observacions i els pronòstics meteorològics.

Per canviar el mapa: feu clic els botons verds amb una creu de color negre per apropar; al botó verd amb un guió per allunyar la imatge; o en les fletxes verdes per a mapes adjacents.


METAR-TAF: